Aviation Digital Data Service (ADDS)

Output produced by METARs form (1208 UTC 16 July 2019)
found at http://www.aviationweather.gov/metar/data/
 
FTTC 161100Z 18004KT 9999 FEW040 34/// Q1013
FTTY 161100Z 24012KT 5000 HZ SKC 41/19 Q1012
FTTD 161100Z 14006KT 9999 FEW040 32/// Q1014
FTTJ 161100Z 15009KT 150V220 9999 FEW040 34/23 Q1012 NOSIG
TAF FTTJ 161100Z 1612/1718 18008KT 9999 FEW040 
     PROB30 
     TEMPO 1616/1620 TS 
     TEMPO 1715/1718 VRB18G35KT 2500 BLDU TSRA
       
FTTA 161100Z 26010KT 9999 SCT040TCU FEW050CB 32/22 Q1015